createdAt,value
2023-03-11T00:00:59.708Z,94755.00
2023-03-11T00:03:56.566Z,94756.06
2023-03-11T00:06:53.409Z,94771.44
2023-03-11T00:09:50.222Z,94782.28
2023-03-11T00:12:47.023Z,94779.69
2023-03-11T00:15:48.404Z,94792.00
2023-03-11T00:18:45.226Z,94802.22
2023-03-11T00:21:42.023Z,94796.16
2023-03-11T00:24:38.849Z,94800.56
2023-03-11T00:27:37.189Z,94821.69
2023-03-11T00:30:34.121Z,94826.34
2023-03-11T00:33:31.252Z,94853.75
2023-03-11T00:36:31.933Z,94853.53
2023-03-11T00:39:28.701Z,94864.38
2023-03-11T00:42:25.554Z,94855.88
2023-03-11T00:45:22.880Z,94879.41
2023-03-11T00:48:20.060Z,94894.47
2023-03-11T00:51:16.923Z,94892.25
2023-03-11T00:54:13.767Z,94896.63
2023-03-11T00:57:10.575Z,94900.13
2023-03-11T01:00:11.852Z,94909.47
2023-03-11T01:03:09.401Z,94918.00
2023-03-11T01:06:06.901Z,94917.56
2023-03-11T01:09:04.824Z,94930.63
2023-03-11T01:12:01.659Z,94930.69
2023-03-11T01:14:58.700Z,94937.22
2023-03-11T01:17:55.614Z,94927.47
2023-03-11T01:20:52.835Z,94933.59
2023-03-11T01:23:49.674Z,94939.56
2023-03-11T01:26:46.478Z,94941.34
2023-03-11T01:29:43.302Z,94953.72
2023-03-11T01:32:40.239Z,94960.19
2023-03-11T01:35:37.252Z,94965.28
2023-03-11T01:38:34.206Z,94969.50
2023-03-11T01:41:31.170Z,94964.22
2023-03-11T01:44:28.109Z,94968.72
2023-03-11T01:47:37.805Z,94972.66
2023-03-11T01:50:43.272Z,94982.25
2023-03-11T01:53:40.452Z,94998.31
2023-03-11T01:56:38.956Z,95008.50
2023-03-11T01:59:46.970Z,95015.09
2023-03-11T02:02:52.099Z,95016.13
2023-03-11T02:05:52.647Z,95007.38
2023-03-11T02:08:50.044Z,95030.84
2023-03-11T02:11:46.875Z,95037.84
2023-03-11T02:14:48.090Z,95048.22
2023-03-11T02:17:45.169Z,95040.22
2023-03-11T02:21:23.318Z,95048.53
2023-03-11T02:24:30.798Z,95040.66
2023-03-11T02:27:31.150Z,95035.66
2023-03-11T02:30:28.941Z,95035.34
2023-03-11T02:33:32.232Z,95054.84
2023-03-11T02:36:38.988Z,95058.81
2023-03-11T02:39:47.368Z,95062.97
2023-03-11T02:42:44.270Z,95065.13
2023-03-11T02:45:43.759Z,95065.59
2023-03-11T02:48:41.116Z,95079.84
2023-03-11T02:51:37.943Z,95081.91
2023-03-11T02:54:34.809Z,95082.16
2023-03-11T02:57:31.699Z,95082.75
2023-03-11T03:00:29.042Z,95091.13
2023-03-11T03:03:25.998Z,95106.66
2023-03-11T03:06:23.054Z,95096.16
2023-03-11T03:09:19.947Z,95111.19
2023-03-11T03:12:16.749Z,95118.22
2023-03-11T03:15:15.936Z,95114.81
2023-03-11T03:18:12.743Z,95116.69
2023-03-11T03:21:09.571Z,95134.28
2023-03-11T03:24:06.861Z,95138.50
2023-03-11T03:27:03.693Z,95139.75
2023-03-11T03:30:00.541Z,95153.22
2023-03-11T03:32:57.371Z,95149.56
2023-03-11T03:35:54.235Z,95143.53
2023-03-11T03:38:56.631Z,95150.34
2023-03-11T03:41:53.525Z,95155.63
2023-03-11T03:44:50.530Z,95169.00
2023-03-11T03:47:47.357Z,95168.22
2023-03-11T03:50:44.217Z,95160.34
2023-03-11T03:53:41.346Z,95172.47
2023-03-11T03:56:38.301Z,95182.41
2023-03-11T03:59:35.225Z,95188.75
2023-03-11T04:02:32.078Z,95199.50
2023-03-11T04:05:28.987Z,95209.75
2023-03-11T04:08:25.779Z,95225.50
2023-03-11T04:11:22.950Z,95217.66
2023-03-11T04:14:19.823Z,95223.41
2023-03-11T04:17:17.804Z,95222.13
2023-03-11T04:20:14.747Z,95234.97
2023-03-11T04:23:12.926Z,95229.97
2023-03-11T04:26:09.852Z,95238.91
2023-03-11T04:29:06.701Z,95225.25
2023-03-11T04:32:03.594Z,95245.44
2023-03-11T04:35:00.403Z,95247.84
2023-03-11T04:37:57.240Z,95244.97
2023-03-11T04:40:54.061Z,95253.88
2023-03-11T04:43:50.882Z,95254.66
2023-03-11T04:46:47.679Z,95260.44
2023-03-11T04:49:44.917Z,95269.38
2023-03-11T04:52:42.041Z,95271.78
2023-03-11T04:55:40.072Z,95275.69
2023-03-11T04:58:36.908Z,95269.09
2023-03-11T05:01:33.803Z,95274.09
2023-03-11T05:04:30.747Z,95276.69
2023-03-11T05:07:27.681Z,95280.63
2023-03-11T05:10:24.503Z,95285.38
2023-03-11T05:13:21.601Z,95279.59
2023-03-11T05:16:18.440Z,95287.97
2023-03-11T05:19:34.182Z,95293.53
2023-03-11T05:22:30.988Z,95296.38
2023-03-11T05:25:27.822Z,95295.06
2023-03-11T05:28:24.630Z,95302.44
2023-03-11T05:31:21.509Z,95296.59
2023-03-11T05:34:18.688Z,95304.25
2023-03-11T05:37:15.711Z,95306.56
2023-03-11T05:40:12.782Z,95312.88
2023-03-11T05:43:09.625Z,95308.94
2023-03-11T05:46:06.549Z,95316.34
2023-03-11T05:49:03.611Z,95316.81
2023-03-11T05:52:00.415Z,95333.69
2023-03-11T05:54:57.246Z,95337.91
2023-03-11T05:57:54.062Z,95333.72
2023-03-11T06:00:50.901Z,95331.84
2023-03-11T06:03:48.145Z,95349.41
2023-03-11T06:06:45.310Z,95352.91
2023-03-11T06:09:42.171Z,95350.00
2023-03-11T06:12:39.007Z,95354.66
2023-03-11T06:15:38.636Z,95353.03
2023-03-11T06:18:35.498Z,95372.50
2023-03-11T06:21:32.430Z,95377.25
2023-03-11T06:24:29.481Z,95381.78
2023-03-11T06:27:26.304Z,95376.97
2023-03-11T06:30:24.899Z,95373.56
2023-03-11T06:33:21.713Z,95379.91
2023-03-11T06:36:20.217Z,95386.56
2023-03-11T06:39:17.176Z,95388.25
2023-03-11T06:42:14.040Z,95395.84
2023-03-11T06:45:11.171Z,95402.97
2023-03-11T06:48:07.970Z,95403.22
2023-03-11T06:51:05.372Z,95415.00
2023-03-11T06:54:02.226Z,95423.13
2023-03-11T06:56:59.033Z,95422.44
2023-03-11T06:59:55.912Z,95424.88
2023-03-11T07:02:52.726Z,95431.94
2023-03-11T07:05:51.932Z,95440.34
2023-03-11T07:08:51.241Z,95429.91
2023-03-11T07:11:48.277Z,95437.00
2023-03-11T07:14:45.118Z,95439.63
2023-03-11T07:17:42.040Z,95440.91
2023-03-11T07:20:38.886Z,95453.56
2023-03-11T07:23:36.175Z,95453.28
2023-03-11T07:26:35.373Z,95459.41
2023-03-11T07:29:32.317Z,95457.56
2023-03-11T07:32:29.233Z,95463.44
2023-03-11T07:35:26.069Z,95458.97
2023-03-11T07:38:22.920Z,95476.25
2023-03-11T07:41:20.560Z,95471.38
2023-03-11T07:44:18.433Z,95469.25
2023-03-11T07:47:15.295Z,95472.84
2023-03-11T07:50:12.291Z,95487.03
2023-03-11T07:53:09.117Z,95483.31
2023-03-11T07:56:07.782Z,95493.66
2023-03-11T07:59:05.838Z,95505.34
2023-03-11T08:02:03.185Z,95496.56
2023-03-11T08:05:00.037Z,95504.22
2023-03-11T08:07:56.884Z,95507.50
2023-03-11T08:10:53.741Z,95502.72
2023-03-11T08:13:51.322Z,95512.22
2023-03-11T08:16:48.677Z,95519.06
2023-03-11T08:19:45.526Z,95522.69
2023-03-11T08:22:55.535Z,95524.53
2023-03-11T08:25:53.978Z,95532.84
2023-03-11T08:28:50.983Z,95537.97
2023-03-11T08:31:47.806Z,95539.47
2023-03-11T08:34:44.615Z,95554.38
2023-03-11T08:37:41.622Z,95552.03
2023-03-11T08:40:38.462Z,95566.75
2023-03-11T08:43:35.761Z,95575.69
2023-03-11T08:46:39.796Z,95566.16
2023-03-11T08:49:38.572Z,95571.69
2023-03-11T08:52:35.899Z,95577.56
2023-03-11T08:55:32.954Z,95581.63
2023-03-11T08:58:30.069Z,95588.47
2023-03-11T09:01:27.022Z,95585.94
2023-03-11T09:04:23.913Z,95594.28
2023-03-11T09:07:20.761Z,95597.72
2023-03-11T09:10:18.304Z,95607.47
2023-03-11T09:13:15.157Z,95607.91
2023-03-11T09:16:20.314Z,95619.69
2023-03-11T09:19:17.167Z,95606.75
2023-03-11T09:22:14.274Z,95621.28
2023-03-11T09:25:13.380Z,95608.81
2023-03-11T09:28:10.225Z,95611.34
2023-03-11T09:31:07.491Z,95612.06
2023-03-11T09:34:04.349Z,95608.31
2023-03-11T09:37:01.715Z,95601.84
2023-03-11T09:39:59.544Z,95604.03
2023-03-11T09:43:39.590Z,95617.63
2023-03-11T09:47:06.255Z,95617.03
2023-03-11T09:50:29.203Z,95620.28
2023-03-11T09:53:37.994Z,95620.38
2023-03-11T09:56:36.000Z,95628.13
2023-03-11T09:59:34.837Z,95641.56
2023-03-11T10:02:36.349Z,95641.50
2023-03-11T10:05:33.506Z,95665.56
2023-03-11T10:08:46.041Z,95656.59
2023-03-11T10:11:57.948Z,95657.63
2023-03-11T10:15:28.288Z,95653.34
2023-03-11T10:18:25.105Z,95657.06
2023-03-11T10:21:49.472Z,95654.78
2023-03-11T10:25:20.993Z,95648.63
2023-03-11T10:28:20.987Z,95659.56
2023-03-11T10:31:47.432Z,95657.59
2023-03-11T10:35:04.110Z,95665.56
2023-03-11T10:38:18.239Z,95664.50
2023-03-11T10:41:30.138Z,95670.53
2023-03-11T10:44:36.449Z,95670.81
2023-03-11T10:47:33.278Z,95675.81
2023-03-11T10:50:36.417Z,95670.81
2023-03-11T10:53:43.468Z,95676.81
2023-03-11T10:56:41.701Z,95695.50
2023-03-11T10:59:54.663Z,95686.34
2023-03-11T11:02:58.233Z,95680.28
2023-03-11T11:06:18.344Z,95681.38
2023-03-11T11:09:21.798Z,95693.44
2023-03-11T11:12:21.382Z,95699.31
2023-03-11T11:15:55.530Z,95697.44
2023-03-11T11:19:04.715Z,95702.97
2023-03-11T11:22:04.705Z,95695.63
2023-03-11T11:25:01.622Z,95699.28
2023-03-11T11:28:24.809Z,95693.22
2023-03-11T11:31:26.346Z,95700.34
2023-03-11T11:34:26.978Z,95702.94
2023-03-11T11:37:26.848Z,95711.88
2023-03-11T11:40:33.033Z,95702.09
2023-03-11T11:44:01.016Z,95709.75
2023-03-11T11:47:20.336Z,95706.06
2023-03-11T11:50:34.445Z,95701.09
2023-03-11T11:53:52.393Z,95709.47
2023-03-11T11:56:49.208Z,95703.50
2023-03-11T11:59:47.085Z,95707.97
2023-03-11T12:03:31.620Z,95707.44
2023-03-11T12:07:02.140Z,95709.31
2023-03-11T12:10:45.005Z,95715.63
2023-03-11T12:14:02.009Z,95707.47
2023-03-11T12:17:03.893Z,95705.59
2023-03-11T12:20:18.624Z,95706.34
2023-03-11T12:23:47.261Z,95704.03
2023-03-11T12:26:47.226Z,95709.50
2023-03-11T12:29:50.180Z,95717.19
2023-03-11T12:32:57.604Z,95719.50
2023-03-11T12:35:59.339Z,95712.41
2023-03-11T12:38:57.215Z,95713.94
2023-03-11T12:42:22.733Z,95715.63
2023-03-11T12:45:53.293Z,95717.44
2023-03-11T12:49:11.686Z,95719.84
2023-03-11T12:52:11.803Z,95720.41
2023-03-11T12:55:17.564Z,95718.03
2023-03-11T12:58:53.794Z,95728.84
2023-03-11T13:02:43.787Z,95727.53
2023-03-11T13:06:14.246Z,95724.09
2023-03-11T13:09:17.018Z,95723.03
2023-03-11T13:12:44.189Z,95724.56
2023-03-11T13:15:43.007Z,95727.78
2023-03-11T13:18:49.004Z,95725.13
2023-03-11T13:21:45.830Z,95734.03
2023-03-11T13:24:51.046Z,95721.72
2023-03-11T13:27:51.710Z,95724.75
2023-03-11T13:30:53.462Z,95739.63
2023-03-11T13:33:54.853Z,95745.97
2023-03-11T13:36:58.650Z,95732.50
2023-03-11T13:40:33.408Z,95736.72
2023-03-11T13:43:30.399Z,95755.47
2023-03-11T13:46:43.739Z,95748.03
2023-03-11T13:49:53.812Z,95760.22
2023-03-11T13:52:54.053Z,95761.00
2023-03-11T13:55:51.331Z,95763.63
2023-03-11T13:58:48.224Z,95775.50
2023-03-11T14:02:08.833Z,95767.84
2023-03-11T14:05:13.567Z,95757.56
2023-03-11T14:08:26.983Z,95772.31
2023-03-11T14:11:29.397Z,95771.03
2023-03-11T14:15:00.628Z,95783.94
2023-03-11T14:18:29.923Z,95775.78
2023-03-11T14:21:27.884Z,95781.84
2023-03-11T14:24:29.847Z,95797.94
2023-03-11T14:27:26.797Z,95802.94
2023-03-11T14:30:30.558Z,95796.34
2023-03-11T14:33:28.278Z,95790.78
2023-03-11T14:36:25.091Z,95789.97
2023-03-11T14:39:46.250Z,95786.06
2023-03-11T14:42:45.017Z,95792.13
2023-03-11T14:45:43.084Z,95797.09
2023-03-11T14:48:43.827Z,95797.88
2023-03-11T14:51:41.299Z,95791.00
2023-03-11T14:54:38.716Z,95791.34
2023-03-11T14:57:45.890Z,95803.47
2023-03-11T15:00:56.628Z,95807.69
2023-03-11T15:04:06.399Z,95802.41
2023-03-11T15:07:05.100Z,95810.06
2023-03-11T15:10:02.631Z,95816.66
2023-03-11T15:13:16.616Z,95809.81
2023-03-11T15:16:37.894Z,95819.28
2023-03-11T15:19:34.887Z,95818.47
2023-03-11T15:22:41.581Z,95825.06
2023-03-11T15:25:39.232Z,95821.13
2023-03-11T15:28:38.968Z,95826.66
2023-03-11T15:31:38.308Z,95835.16
2023-03-11T15:34:35.341Z,95833.56
2023-03-11T15:37:32.181Z,95824.56
2023-03-11T15:40:44.398Z,95822.75
2023-03-11T15:43:48.426Z,95819.56
2023-03-11T15:46:45.851Z,95820.06
2023-03-11T15:49:43.149Z,95821.66
2023-03-11T15:52:39.967Z,95822.97
2023-03-11T15:55:37.482Z,95824.56
2023-03-11T15:58:35.564Z,95829.59
2023-03-11T16:01:32.431Z,95834.25
2023-03-11T16:04:29.384Z,95827.97
2023-03-11T16:07:38.708Z,95828.50
2023-03-11T16:10:36.627Z,95832.47
2023-03-11T16:13:33.523Z,95834.53
2023-03-11T16:16:30.526Z,95837.25
2023-03-11T16:19:27.443Z,95841.47
2023-03-11T16:22:36.142Z,95845.66
2023-03-11T16:25:36.842Z,95851.97
2023-03-11T16:28:33.638Z,95861.69
2023-03-11T16:31:31.427Z,95860.66
2023-03-11T16:34:28.334Z,95864.53
2023-03-11T16:37:25.215Z,95875.56
2023-03-11T16:40:26.634Z,95872.19
2023-03-11T16:43:23.536Z,95880.31
2023-03-11T16:46:20.483Z,95883.47
2023-03-11T16:49:17.433Z,95892.66
2023-03-11T16:52:14.360Z,95888.94
2023-03-11T16:55:11.268Z,95900.22
2023-03-11T16:58:08.733Z,95896.53
2023-03-11T17:01:05.551Z,95901.38
2023-03-11T17:04:02.383Z,95895.22
2023-03-11T17:06:59.413Z,95901.69
2023-03-11T17:09:57.158Z,95906.38
2023-03-11T17:12:54.835Z,95916.09
2023-03-11T17:16:03.855Z,95917.44
2023-03-11T17:19:01.820Z,95919.44
2023-03-11T17:21:58.648Z,95925.94
2023-03-11T17:24:55.618Z,95935.94
2023-03-11T17:27:52.441Z,95939.09
2023-03-11T17:30:51.853Z,95938.88
2023-03-11T17:33:49.455Z,95935.66
2023-03-11T17:36:46.325Z,95950.28
2023-03-11T17:39:43.152Z,95942.94
2023-03-11T17:42:40.099Z,95948.81
2023-03-11T17:45:39.890Z,95958.09
2023-03-11T17:48:40.330Z,95953.13
2023-03-11T17:51:39.761Z,95965.13
2023-03-11T17:54:37.675Z,95963.38
2023-03-11T17:57:42.933Z,95964.09
2023-03-11T18:00:42.146Z,95955.66
2023-03-11T18:03:39.036Z,95957.41
2023-03-11T18:06:35.885Z,95970.97
2023-03-11T18:09:32.746Z,95963.81
2023-03-11T18:12:29.583Z,95978.53
2023-03-11T18:15:26.370Z,95978.13
2023-03-11T18:18:23.272Z,95988.75
2023-03-11T18:21:29.173Z,95979.94
2023-03-11T18:24:25.983Z,95988.34
2023-03-11T18:27:24.460Z,96001.38
2023-03-11T18:30:21.470Z,95997.97
2023-03-11T18:33:18.304Z,96007.28
2023-03-11T18:36:19.293Z,96011.56
2023-03-11T18:39:16.223Z,96012.06
2023-03-11T18:42:14.122Z,96017.34
2023-03-11T18:45:12.202Z,96019.34
2023-03-11T18:48:09.050Z,96018.41
2023-03-11T18:51:08.299Z,96010.34
2023-03-11T18:54:06.973Z,96018.19
2023-03-11T18:57:03.982Z,96018.06
2023-03-11T19:00:00.941Z,96022.78
2023-03-11T19:02:57.792Z,96020.75
2023-03-11T19:05:54.728Z,96024.91
2023-03-11T19:08:53.370Z,96022.78
2023-03-11T19:11:50.220Z,96019.84
2023-03-11T19:14:47.055Z,96030.94
2023-03-11T19:17:45.487Z,96027.56
2023-03-11T19:20:43.443Z,96041.84
2023-03-11T19:23:40.616Z,96042.06
2023-03-11T19:26:46.621Z,96036.41
2023-03-11T19:29:43.452Z,96046.25
2023-03-11T19:32:40.307Z,96052.16
2023-03-11T19:35:37.392Z,96053.00
2023-03-11T19:38:34.963Z,96052.59
2023-03-11T19:41:31.826Z,96045.63
2023-03-11T19:44:28.690Z,96054.03
2023-03-11T19:47:25.654Z,96050.75
2023-03-11T19:50:22.792Z,96053.03
2023-03-11T19:53:21.586Z,96044.84
2023-03-11T19:56:18.493Z,96058.66
2023-03-11T19:59:15.547Z,96046.78
2023-03-11T20:02:13.575Z,96058.78
2023-03-11T20:05:10.672Z,96063.88
2023-03-11T20:08:09.675Z,96053.88
2023-03-11T20:11:06.764Z,96054.88
2023-03-11T20:14:03.649Z,96063.09
2023-03-11T20:17:00.558Z,96064.56
2023-03-11T20:19:57.371Z,96072.56
2023-03-11T20:22:55.440Z,96065.94
2023-03-11T20:25:52.285Z,96068.91
2023-03-11T20:28:49.321Z,96079.72
2023-03-11T20:31:46.198Z,96076.88
2023-03-11T20:34:43.178Z,96073.22
2023-03-11T20:37:40.209Z,96079.97
2023-03-11T20:40:37.013Z,96075.97
2023-03-11T20:43:34.971Z,96084.75
2023-03-11T20:46:34.185Z,96088.38
2023-03-11T20:49:31.084Z,96085.19
2023-03-11T20:52:32.268Z,96082.66
2023-03-11T20:55:29.134Z,96073.44
2023-03-11T20:58:26.576Z,96082.31
2023-03-11T21:01:30.078Z,96071.72
2023-03-11T21:04:27.080Z,96069.69
2023-03-11T21:07:24.034Z,96060.81
2023-03-11T21:10:20.888Z,96060.59
2023-03-11T21:13:17.887Z,96065.38
2023-03-11T21:16:15.681Z,96083.19
2023-03-11T21:19:13.599Z,96072.81
2023-03-11T21:22:11.765Z,96082.38
2023-03-11T21:25:09.129Z,96082.06
2023-03-11T21:28:06.019Z,96084.69
2023-03-11T21:31:11.182Z,96087.88
2023-03-11T21:34:11.739Z,96096.94
2023-03-11T21:37:08.728Z,96095.09
2023-03-11T21:40:07.472Z,96102.84
2023-03-11T21:43:04.323Z,96099.91
2023-03-11T21:46:01.637Z,96098.47
2023-03-11T21:48:59.668Z,96102.59
2023-03-11T21:51:56.614Z,96102.69
2023-03-11T21:54:53.536Z,96099.97
2023-03-11T21:57:50.425Z,96102.88
2023-03-11T22:00:47.817Z,96097.91
2023-03-11T22:03:44.799Z,96104.50
2023-03-11T22:06:41.774Z,96105.88
2023-03-11T22:09:38.618Z,96104.03
2023-03-11T22:12:36.234Z,96116.59
2023-03-11T22:15:33.178Z,96121.72
2023-03-11T22:18:30.247Z,96110.88
2023-03-11T22:21:27.100Z,96105.75
2023-03-11T22:24:23.924Z,96103.28
2023-03-11T22:27:20.729Z,96107.47
2023-03-11T22:30:17.657Z,96110.28
2023-03-11T22:33:14.506Z,96110.50
2023-03-11T22:36:11.709Z,96108.44
2023-03-11T22:39:08.553Z,96116.28
2023-03-11T22:42:05.729Z,96119.13
2023-03-11T22:45:04.797Z,96125.88
2023-03-11T22:48:01.616Z,96123.75
2023-03-11T22:50:58.429Z,96131.59
2023-03-11T22:53:55.248Z,96117.19
2023-03-11T22:56:52.285Z,96121.94
2023-03-11T22:59:49.145Z,96121.66
2023-03-11T23:02:54.301Z,96119.94
2023-03-11T23:05:51.207Z,96123.19
2023-03-11T23:08:48.965Z,96125.28
2023-03-11T23:11:45.786Z,96127.25
2023-03-11T23:14:45.251Z,96135.00
2023-03-11T23:17:42.369Z,96135.16
2023-03-11T23:20:41.423Z,96135.69
2023-03-11T23:23:38.263Z,96132.63
2023-03-11T23:26:35.722Z,96126.25
2023-03-11T23:29:32.796Z,96132.72
2023-03-11T23:32:29.654Z,96132.03
2023-03-11T23:35:26.546Z,96136.50
2023-03-11T23:38:23.367Z,96143.03
2023-03-11T23:41:21.700Z,96134.91
2023-03-11T23:44:18.540Z,96148.78
2023-03-11T23:47:15.365Z,96151.47
2023-03-11T23:50:12.253Z,96147.53
2023-03-11T23:53:09.091Z,96157.16
2023-03-11T23:56:11.836Z,96150.09
2023-03-11T23:59:08.651Z,96144.78
